sensor_id;sensor_type;location;lat;lon;timestamp;pressure;altitude;pressure_sealevel;temperature;humidity
37200;BME280;23096;50.892;16.746;2024-02-26T00:01:40;98191.06;;;5.88;68.00
37200;BME280;23096;50.892;16.746;2024-02-26T00:04:06;98189.44;;;5.92;68.15
37200;BME280;23096;50.892;16.746;2024-02-26T00:06:32;98189.52;;;5.94;68.13
37200;BME280;23096;50.892;16.746;2024-02-26T00:08:58;98185.41;;;5.97;68.10
37200;BME280;23096;50.892;16.746;2024-02-26T00:11:24;98182.10;;;5.99;68.10
37200;BME280;23096;50.892;16.746;2024-02-26T00:13:49;98179.89;;;5.99;68.12
37200;BME280;23096;50.892;16.746;2024-02-26T00:16:15;98176.61;;;6.00;68.15
37200;BME280;23096;50.892;16.746;2024-02-26T00:18:40;98177.65;;;5.99;68.08
37200;BME280;23096;50.892;16.746;2024-02-26T00:21:06;98177.69;;;5.98;68.19
37200;BME280;23096;50.892;16.746;2024-02-26T00:23:32;98175.84;;;5.98;68.20
37200;BME280;23096;50.892;16.746;2024-02-26T00:25:58;98177.57;;;5.96;68.13
37200;BME280;23096;50.892;16.746;2024-02-26T00:28:23;98174.01;;;5.94;68.19
37200;BME280;23096;50.892;16.746;2024-02-26T00:30:50;98174.55;;;5.94;68.16
37200;BME280;23096;50.892;16.746;2024-02-26T00:33:16;98172.68;;;5.93;68.20
37200;BME280;23096;50.892;16.746;2024-02-26T00:35:42;98171.90;;;5.91;68.23
37200;BME280;23096;50.892;16.746;2024-02-26T00:38:08;98168.31;;;5.91;68.30
37200;BME280;23096;50.892;16.746;2024-02-26T00:40:34;98165.86;;;5.93;68.27
37200;BME280;23096;50.892;16.746;2024-02-26T00:42:59;98163.25;;;5.96;68.30
37200;BME280;23096;50.892;16.746;2024-02-26T00:45:25;98159.27;;;5.98;68.35
37200;BME280;23096;50.892;16.746;2024-02-26T00:47:51;98156.55;;;6.04;68.43
37200;BME280;23096;50.892;16.746;2024-02-26T00:50:17;98159.12;;;6.09;68.48
37200;BME280;23096;50.892;16.746;2024-02-26T00:52:42;98159.75;;;6.16;68.63
37200;BME280;23096;50.892;16.746;2024-02-26T00:55:08;98157.05;;;6.21;68.49
37200;BME280;23096;50.892;16.746;2024-02-26T00:57:34;98154.53;;;6.25;68.48
37200;BME280;23096;50.892;16.746;2024-02-26T00:59:59;98155.59;;;6.29;68.58
37200;BME280;23096;50.892;16.746;2024-02-26T01:02:26;98149.33;;;6.33;68.61
37200;BME280;23096;50.892;16.746;2024-02-26T01:04:52;98143.05;;;6.37;68.63
37200;BME280;23096;50.892;16.746;2024-02-26T01:07:18;98142.10;;;6.40;68.63
37200;BME280;23096;50.892;16.746;2024-02-26T01:09:44;98144.05;;;6.43;68.57
37200;BME280;23096;50.892;16.746;2024-02-26T01:12:10;98141.24;;;6.45;68.67
37200;BME280;23096;50.892;16.746;2024-02-26T01:14:35;98135.89;;;6.47;68.58
37200;BME280;23096;50.892;16.746;2024-02-26T01:17:01;98135.77;;;6.51;68.70
37200;BME280;23096;50.892;16.746;2024-02-26T01:19:26;98133.45;;;6.54;68.69
37200;BME280;23096;50.892;16.746;2024-02-26T01:21:51;98130.70;;;6.55;68.59
37200;BME280;23096;50.892;16.746;2024-02-26T01:24:17;98126.30;;;6.54;68.54
37200;BME280;23096;50.892;16.746;2024-02-26T01:26:42;98131.42;;;6.54;68.54
37200;BME280;23096;50.892;16.746;2024-02-26T01:29:08;98125.69;;;6.51;68.60
37200;BME280;23096;50.892;16.746;2024-02-26T01:31:34;98125.54;;;6.51;68.56
37200;BME280;23096;50.892;16.746;2024-02-26T01:34:00;98125.71;;;6.51;68.63
37200;BME280;23096;50.892;16.746;2024-02-26T01:36:26;98127.34;;;6.53;68.74
37200;BME280;23096;50.892;16.746;2024-02-26T01:38:51;98128.16;;;6.59;68.76
37200;BME280;23096;50.892;16.746;2024-02-26T01:41:17;98129.50;;;6.60;68.62
37200;BME280;23096;50.892;16.746;2024-02-26T01:43:43;98125.11;;;6.28;67.81
37200;BME280;23096;50.892;16.746;2024-02-26T01:46:12;98128.95;;;5.73;67.40
37200;BME280;23096;50.892;16.746;2024-02-26T01:48:40;98128.09;;;5.21;67.07
37200;BME280;23096;50.892;16.746;2024-02-26T01:51:06;98126.66;;;4.79;67.12
37200;BME280;23096;50.892;16.746;2024-02-26T01:53:32;98121.83;;;4.49;67.42
37200;BME280;23096;50.892;16.746;2024-02-26T01:55:58;98119.05;;;4.30;67.58
37200;BME280;23096;50.892;16.746;2024-02-26T01:58:23;98121.60;;;4.23;67.78
37200;BME280;23096;50.892;16.746;2024-02-26T02:00:49;98119.67;;;4.19;67.86
37200;BME280;23096;50.892;16.746;2024-02-26T02:03:15;98118.01;;;4.17;67.92
37200;BME280;23096;50.892;16.746;2024-02-26T02:05:41;98119.00;;;4.18;68.27
37200;BME280;23096;50.892;16.746;2024-02-26T02:08:10;98116.66;;;4.24;68.33
37200;BME280;23096;50.892;16.746;2024-02-26T02:10:36;98118.30;;;4.26;68.28
37200;BME280;23096;50.892;16.746;2024-02-26T02:13:02;98117.80;;;4.26;68.36
37200;BME280;23096;50.892;16.746;2024-02-26T02:15:27;98122.36;;;4.20;68.20
37200;BME280;23096;50.892;16.746;2024-02-26T02:17:53;98123.47;;;4.09;68.13
37200;BME280;23096;50.892;16.746;2024-02-26T02:20:19;98127.15;;;4.04;68.09
37200;BME280;23096;50.892;16.746;2024-02-26T02:22:45;98129.04;;;3.80;67.94
37200;BME280;23096;50.892;16.746;2024-02-26T02:25:11;98128.00;;;3.58;68.00
37200;BME280;23096;50.892;16.746;2024-02-26T02:27:37;98130.27;;;3.39;68.14
37200;BME280;23096;50.892;16.746;2024-02-26T02:30:03;98129.63;;;3.29;68.26
37200;BME280;23096;50.892;16.746;2024-02-26T02:32:29;98130.65;;;3.29;68.38
37200;BME280;23096;50.892;16.746;2024-02-26T02:34:56;98128.71;;;3.32;68.53
37200;BME280;23096;50.892;16.746;2024-02-26T02:37:22;98133.73;;;3.36;68.57
37200;BME280;23096;50.892;16.746;2024-02-26T02:39:47;98132.48;;;3.38;68.80
37200;BME280;23096;50.892;16.746;2024-02-26T02:42:12;98130.27;;;3.38;68.68
37200;BME280;23096;50.892;16.746;2024-02-26T02:44:38;98130.09;;;3.40;68.91
37200;BME280;23096;50.892;16.746;2024-02-26T02:47:04;98126.47;;;3.42;68.80
37200;BME280;23096;50.892;16.746;2024-02-26T02:49:29;98122.73;;;3.42;68.85
37200;BME280;23096;50.892;16.746;2024-02-26T02:51:55;98117.16;;;3.41;68.96
37200;BME280;23096;50.892;16.746;2024-02-26T02:54:22;98119.29;;;3.44;69.13
37200;BME280;23096;50.892;16.746;2024-02-26T02:56:48;98116.48;;;3.50;69.07
37200;BME280;23096;50.892;16.746;2024-02-26T02:59:14;98113.14;;;3.54;69.22
37200;BME280;23096;50.892;16.746;2024-02-26T03:01:40;98117.60;;;3.61;69.30
37200;BME280;23096;50.892;16.746;2024-02-26T03:04:05;98118.11;;;3.68;69.33
37200;BME280;23096;50.892;16.746;2024-02-26T03:06:31;98117.75;;;3.77;69.49
37200;BME280;23096;50.892;16.746;2024-02-26T03:08:56;98113.36;;;3.83;69.51
37200;BME280;23096;50.892;16.746;2024-02-26T03:11:22;98112.52;;;3.90;69.55
37200;BME280;23096;50.892;16.746;2024-02-26T03:13:47;98118.05;;;3.78;69.00
37200;BME280;23096;50.892;16.746;2024-02-26T03:16:13;98120.89;;;3.49;68.96
37200;BME280;23096;50.892;16.746;2024-02-26T03:18:39;98118.63;;;3.44;69.20
37200;BME280;23096;50.892;16.746;2024-02-26T03:21:06;98123.86;;;3.45;69.32
37200;BME280;23096;50.892;16.746;2024-02-26T03:23:31;98126.89;;;3.47;69.46
37200;BME280;23096;50.892;16.746;2024-02-26T03:26:02;98128.61;;;3.38;69.21
37200;BME280;23096;50.892;16.746;2024-02-26T03:28:28;98127.59;;;3.29;69.37
37200;BME280;23096;50.892;16.746;2024-02-26T03:30:54;98120.62;;;3.29;69.57
37200;BME280;23096;50.892;16.746;2024-02-26T03:33:21;98116.04;;;3.30;69.59
37200;BME280;23096;50.892;16.746;2024-02-26T03:35:46;98115.28;;;3.34;69.74
37200;BME280;23096;50.892;16.746;2024-02-26T03:38:13;98112.77;;;3.39;69.79
37200;BME280;23096;50.892;16.746;2024-02-26T03:40:38;98110.44;;;3.46;69.93
37200;BME280;23096;50.892;16.746;2024-02-26T03:43:04;98107.69;;;3.55;70.11
37200;BME280;23096;50.892;16.746;2024-02-26T03:45:32;98109.52;;;3.64;70.16
37200;BME280;23096;50.892;16.746;2024-02-26T03:47:58;98104.08;;;3.73;70.21
37200;BME280;23096;50.892;16.746;2024-02-26T03:50:23;98105.10;;;3.80;70.28
37200;BME280;23096;50.892;16.746;2024-02-26T03:52:49;98103.60;;;3.86;70.21
37200;BME280;23096;50.892;16.746;2024-02-26T03:55:15;98099.25;;;3.91;70.23
37200;BME280;23096;50.892;16.746;2024-02-26T03:57:40;98099.04;;;3.93;70.18
37200;BME280;23096;50.892;16.746;2024-02-26T04:00:06;98099.20;;;3.93;70.08
37200;BME280;23096;50.892;16.746;2024-02-26T04:02:36;98099.08;;;3.91;70.14
37200;BME280;23096;50.892;16.746;2024-02-26T04:05:01;98100.70;;;3.87;69.98
37200;BME280;23096;50.892;16.746;2024-02-26T04:07:27;98100.13;;;3.74;69.95
37200;BME280;23096;50.892;16.746;2024-02-26T04:09:52;98103.03;;;3.50;69.65
37200;BME280;23096;50.892;16.746;2024-02-26T04:12:18;98103.13;;;3.29;69.74
37200;BME280;23096;50.892;16.746;2024-02-26T04:14:44;98106.06;;;3.19;69.80
37200;BME280;23096;50.892;16.746;2024-02-26T04:17:09;98107.20;;;3.13;70.13
37200;BME280;23096;50.892;16.746;2024-02-26T04:19:36;98111.71;;;3.07;70.13
37200;BME280;23096;50.892;16.746;2024-02-26T04:22:02;98107.70;;;3.05;70.20
37200;BME280;23096;50.892;16.746;2024-02-26T04:24:27;98109.58;;;3.04;70.16
37200;BME280;23096;50.892;16.746;2024-02-26T04:26:53;98115.52;;;3.05;70.29
37200;BME280;23096;50.892;16.746;2024-02-26T04:29:18;98116.88;;;3.04;70.30
37200;BME280;23096;50.892;16.746;2024-02-26T04:31:44;98116.20;;;3.04;70.41
37200;BME280;23096;50.892;16.746;2024-02-26T04:34:11;98116.01;;;3.05;70.43
37200;BME280;23096;50.892;16.746;2024-02-26T04:36:36;98118.20;;;3.06;70.62
37200;BME280;23096;50.892;16.746;2024-02-26T04:39:02;98119.55;;;3.06;70.44
37200;BME280;23096;50.892;16.746;2024-02-26T04:41:28;98119.94;;;3.04;70.50
37200;BME280;23096;50.892;16.746;2024-02-26T04:43:53;98124.48;;;3.05;70.62
37200;BME280;23096;50.892;16.746;2024-02-26T04:46:19;98123.01;;;3.03;70.52
37200;BME280;23096;50.892;16.746;2024-02-26T04:48:47;98121.70;;;3.00;70.47
37200;BME280;23096;50.892;16.746;2024-02-26T04:51:13;98125.17;;;2.96;70.54
37200;BME280;23096;50.892;16.746;2024-02-26T04:53:38;98123.52;;;2.94;70.64
37200;BME280;23096;50.892;16.746;2024-02-26T04:56:04;98128.60;;;2.94;70.63
37200;BME280;23096;50.892;16.746;2024-02-26T04:58:29;98128.58;;;2.96;70.68
37200;BME280;23096;50.892;16.746;2024-02-26T05:00:55;98122.25;;;2.90;70.53
37200;BME280;23096;50.892;16.746;2024-02-26T05:03:21;98116.06;;;2.84;70.56
37200;BME280;23096;50.892;16.746;2024-02-26T05:05:47;98111.02;;;2.81;70.72
37200;BME280;23096;50.892;16.746;2024-02-26T05:08:12;98109.33;;;2.82;70.82
37200;BME280;23096;50.892;16.746;2024-02-26T05:10:38;98109.58;;;2.87;71.02
37200;BME280;23096;50.892;16.746;2024-02-26T05:13:08;98107.96;;;3.00;71.33
37200;BME280;23096;50.892;16.746;2024-02-26T05:15:35;98105.45;;;3.15;71.48
37200;BME280;23096;50.892;16.746;2024-02-26T05:18:02;98106.02;;;3.29;71.24
37200;BME280;23096;50.892;16.746;2024-02-26T05:20:28;98109.88;;;3.06;70.63
37200;BME280;23096;50.892;16.746;2024-02-26T05:22:54;98110.50;;;2.82;70.70
37200;BME280;23096;50.892;16.746;2024-02-26T05:25:19;98109.80;;;2.75;70.86
37200;BME280;23096;50.892;16.746;2024-02-26T05:27:45;98111.83;;;2.75;70.87
37200;BME280;23096;50.892;16.746;2024-02-26T05:30:11;98112.15;;;2.76;71.02
37200;BME280;23096;50.892;16.746;2024-02-26T05:32:37;98114.88;;;2.75;70.90
37200;BME280;23096;50.892;16.746;2024-02-26T05:35:03;98112.46;;;2.58;70.57
37200;BME280;23096;50.892;16.746;2024-02-26T05:37:29;98114.86;;;2.47;70.83
37200;BME280;23096;50.892;16.746;2024-02-26T05:39:55;98113.27;;;2.41;70.85
37200;BME280;23096;50.892;16.746;2024-02-26T05:42:21;98112.28;;;2.39;70.93
37200;BME280;23096;50.892;16.746;2024-02-26T05:44:46;98115.66;;;2.39;71.15
37200;BME280;23096;50.892;16.746;2024-02-26T05:47:12;98119.63;;;2.36;71.01
37200;BME280;23096;50.892;16.746;2024-02-26T05:49:39;98129.64;;;2.14;70.58
37200;BME280;23096;50.892;16.746;2024-02-26T05:52:05;98138.02;;;1.86;70.68
37200;BME280;23096;50.892;16.746;2024-02-26T05:54:31;98142.80;;;1.72;70.88
37200;BME280;23096;50.892;16.746;2024-02-26T05:56:57;98146.26;;;1.66;70.99
37200;BME280;23096;50.892;16.746;2024-02-26T05:59:22;98147.27;;;1.65;71.20
37200;BME280;23096;50.892;16.746;2024-02-26T06:01:48;98151.63;;;1.70;71.23
37200;BME280;23096;50.892;16.746;2024-02-26T06:04:14;98149.30;;;1.78;71.49
37200;BME280;23096;50.892;16.746;2024-02-26T06:06:39;98147.77;;;1.79;71.30
37200;BME280;23096;50.892;16.746;2024-02-26T06:09:05;98147.56;;;1.82;71.41
37200;BME280;23096;50.892;16.746;2024-02-26T06:11:31;98143.45;;;1.85;71.53
37200;BME280;23096;50.892;16.746;2024-02-26T06:13:56;98145.30;;;1.85;71.52
37200;BME280;23096;50.892;16.746;2024-02-26T06:16:22;98140.83;;;1.91;71.71
37200;BME280;23096;50.892;16.746;2024-02-26T06:18:47;98144.25;;;2.00;71.78
37200;BME280;23096;50.892;16.746;2024-02-26T06:21:13;98141.39;;;2.09;71.91
37200;BME280;23096;50.892;16.746;2024-02-26T06:23:39;98140.10;;;2.17;71.75
37200;BME280;23096;50.892;16.746;2024-02-26T06:26:06;98139.92;;;2.07;71.53
37200;BME280;23096;50.892;16.746;2024-02-26T06:28:31;98142.23;;;2.00;71.67
37200;BME280;23096;50.892;16.746;2024-02-26T06:30:59;98143.89;;;2.02;71.84
37200;BME280;23096;50.892;16.746;2024-02-26T06:33:25;98148.05;;;2.06;71.86
37200;BME280;23096;50.892;16.746;2024-02-26T06:35:50;98150.20;;;2.10;71.97
37200;BME280;23096;50.892;16.746;2024-02-26T06:38:16;98149.45;;;2.15;71.97
37200;BME280;23096;50.892;16.746;2024-02-26T06:40:44;98148.55;;;2.19;72.02
37200;BME280;23096;50.892;16.746;2024-02-26T06:43:09;98150.48;;;2.25;72.05
37200;BME280;23096;50.892;16.746;2024-02-26T06:45:35;98153.61;;;2.31;72.24
37200;BME280;23096;50.892;16.746;2024-02-26T06:48:01;98151.66;;;2.36;72.21
37200;BME280;23096;50.892;16.746;2024-02-26T06:50:27;98154.46;;;2.41;72.21
37200;BME280;23096;50.892;16.746;2024-02-26T06:52:53;98158.61;;;2.46;72.26
37200;BME280;23096;50.892;16.746;2024-02-26T06:55:18;98161.92;;;2.51;72.27
37200;BME280;23096;50.892;16.746;2024-02-26T06:57:44;98162.73;;;2.54;72.32
37200;BME280;23096;50.892;16.746;2024-02-26T07:00:10;98163.76;;;2.53;72.22
37200;BME280;23096;50.892;16.746;2024-02-26T07:02:41;98167.70;;;2.50;72.13
37200;BME280;23096;50.892;16.746;2024-02-26T07:05:07;98167.19;;;2.50;72.27
37200;BME280;23096;50.892;16.746;2024-02-26T07:07:33;98174.23;;;2.56;72.42
37200;BME280;23096;50.892;16.746;2024-02-26T07:09:58;98175.25;;;2.65;72.56
37200;BME280;23096;50.892;16.746;2024-02-26T07:12:24;98170.59;;;2.70;72.56
37200;BME280;23096;50.892;16.746;2024-02-26T07:14:49;98172.73;;;2.75;72.57
37200;BME280;23096;50.892;16.746;2024-02-26T07:17:16;98172.20;;;2.76;72.48
37200;BME280;23096;50.892;16.746;2024-02-26T07:19:42;98170.65;;;2.76;72.51
37200;BME280;23096;50.892;16.746;2024-02-26T07:22:08;98169.77;;;2.79;72.49
37200;BME280;23096;50.892;16.746;2024-02-26T07:24:33;98166.48;;;2.82;72.58
37200;BME280;23096;50.892;16.746;2024-02-26T07:26:59;98164.00;;;2.88;72.64
37200;BME280;23096;50.892;16.746;2024-02-26T07:29:25;98163.72;;;2.94;72.66
37200;BME280;23096;50.892;16.746;2024-02-26T07:31:50;98167.31;;;3.02;72.75
37200;BME280;23096;50.892;16.746;2024-02-26T07:34:16;98166.83;;;3.10;72.79
37200;BME280;23096;50.892;16.746;2024-02-26T07:36:42;98163.64;;;3.17;73.01
37200;BME280;23096;50.892;16.746;2024-02-26T07:39:07;98160.77;;;3.26;73.11
37200;BME280;23096;50.892;16.746;2024-02-26T07:41:33;98170.77;;;3.35;73.08
37200;BME280;23096;50.892;16.746;2024-02-26T07:43:59;98172.61;;;3.44;73.11
37200;BME280;23096;50.892;16.746;2024-02-26T07:46:24;98175.25;;;3.56;73.18
37200;BME280;23096;50.892;16.746;2024-02-26T07:48:50;98176.34;;;3.69;73.49
37200;BME280;23096;50.892;16.746;2024-02-26T07:51:15;98176.41;;;3.82;73.47
37200;BME280;23096;50.892;16.746;2024-02-26T07:53:43;98179.41;;;3.92;73.43
37200;BME280;23096;50.892;16.746;2024-02-26T07:56:10;98178.68;;;4.02;73.57
37200;BME280;23096;50.892;16.746;2024-02-26T07:58:35;98181.15;;;4.14;73.63
37200;BME280;23096;50.892;16.746;2024-02-26T08:01:01;98179.35;;;4.25;73.66
37200;BME280;23096;50.892;16.746;2024-02-26T08:03:27;98178.21;;;4.38;73.75
37200;BME280;23096;50.892;16.746;2024-02-26T08:05:53;98182.27;;;4.53;73.85
37200;BME280;23096;50.892;16.746;2024-02-26T08:08:19;98185.18;;;4.66;73.86
37200;BME280;23096;50.892;16.746;2024-02-26T08:10:44;98193.39;;;4.78;73.91
37200;BME280;23096;50.892;16.746;2024-02-26T08:13:10;98189.54;;;4.89;73.97
37200;BME280;23096;50.892;16.746;2024-02-26T08:15:36;98188.97;;;4.98;74.06
37200;BME280;23096;50.892;16.746;2024-02-26T08:18:05;98192.09;;;5.02;74.03
37200;BME280;23096;50.892;16.746;2024-02-26T08:20:31;98191.30;;;5.06;74.07
37200;BME280;23096;50.892;16.746;2024-02-26T08:22:57;98193.63;;;5.15;74.22
37200;BME280;23096;50.892;16.746;2024-02-26T08:25:23;98192.90;;;5.30;74.39
37200;BME280;23096;50.892;16.746;2024-02-26T08:27:50;98191.80;;;5.45;74.45
37200;BME280;23096;50.892;16.746;2024-02-26T08:30:16;98194.54;;;5.62;74.50
37200;BME280;23096;50.892;16.746;2024-02-26T08:32:51;98192.73;;;5.78;74.53
37200;BME280;23096;50.892;16.746;2024-02-26T08:35:17;98189.21;;;5.94;74.54
37200;BME280;23096;50.892;16.746;2024-02-26T08:37:47;98185.61;;;6.07;74.58
37200;BME280;23096;50.892;16.746;2024-02-26T08:40:13;98192.54;;;6.20;74.72
37200;BME280;23096;50.892;16.746;2024-02-26T08:42:39;98194.33;;;6.34;74.73
37200;BME280;23096;50.892;16.746;2024-02-26T08:45:05;98193.24;;;6.46;74.71
37200;BME280;23096;50.892;16.746;2024-02-26T08:47:32;98189.33;;;6.57;74.77
37200;BME280;23096;50.892;16.746;2024-02-26T08:49:58;98190.05;;;6.66;74.73
37200;BME280;23096;50.892;16.746;2024-02-26T08:52:23;98189.95;;;6.75;74.76
37200;BME280;23096;50.892;16.746;2024-02-26T08:54:49;98186.11;;;6.83;74.72
37200;BME280;23096;50.892;16.746;2024-02-26T08:57:15;98184.08;;;6.92;74.73
37200;BME280;23096;50.892;16.746;2024-02-26T08:59:41;98180.52;;;7.01;74.68
37200;BME280;23096;50.892;16.746;2024-02-26T09:02:07;98176.98;;;7.10;74.72
37200;BME280;23096;50.892;16.746;2024-02-26T09:04:34;98179.06;;;7.19;74.72
37200;BME280;23096;50.892;16.746;2024-02-26T09:07:01;98183.37;;;7.28;74.63
37200;BME280;23096;50.892;16.746;2024-02-26T09:09:27;98181.59;;;7.34;74.57
37200;BME280;23096;50.892;16.746;2024-02-26T09:11:53;98182.02;;;7.41;74.59
37200;BME280;23096;50.892;16.746;2024-02-26T09:14:21;98180.58;;;7.48;74.53
37200;BME280;23096;50.892;16.746;2024-02-26T09:16:46;98181.27;;;7.53;74.45
37200;BME280;23096;50.892;16.746;2024-02-26T09:19:15;98182.96;;;7.58;74.45
37200;BME280;23096;50.892;16.746;2024-02-26T09:21:44;98181.09;;;7.62;74.42
37200;BME280;23096;50.892;16.746;2024-02-26T09:24:13;98182.30;;;7.67;74.38
37200;BME280;23096;50.892;16.746;2024-02-26T09:26:38;98186.20;;;7.72;74.33
37200;BME280;23096;50.892;16.746;2024-02-26T09:29:04;98184.27;;;7.78;74.30
37200;BME280;23096;50.892;16.746;2024-02-26T09:31:31;98185.41;;;7.84;74.30
37200;BME280;23096;50.892;16.746;2024-02-26T09:33:57;98184.20;;;7.90;74.25
37200;BME280;23096;50.892;16.746;2024-02-26T09:36:22;98185.64;;;7.96;74.20
37200;BME280;23096;50.892;16.746;2024-02-26T09:38:48;98180.93;;;7.99;74.15
37200;BME280;23096;50.892;16.746;2024-02-26T09:41:16;98185.17;;;8.04;74.15
37200;BME280;23096;50.892;16.746;2024-02-26T09:43:44;98184.73;;;8.07;74.06
37200;BME280;23096;50.892;16.746;2024-02-26T09:46:13;98185.15;;;8.09;74.01
37200;BME280;23096;50.892;16.746;2024-02-26T09:48:42;98191.85;;;8.13;74.05
37200;BME280;23096;50.892;16.746;2024-02-26T09:51:11;98191.09;;;8.19;74.05
37200;BME280;23096;50.892;16.746;2024-02-26T09:53:38;98191.25;;;8.24;73.98
37200;BME280;23096;50.892;16.746;2024-02-26T09:56:08;98191.50;;;8.26;73.88
37200;BME280;23096;50.892;16.746;2024-02-26T09:58:34;98191.81;;;8.27;73.83
37200;BME280;23096;50.892;16.746;2024-02-26T10:01:02;98194.33;;;8.28;73.76
37200;BME280;23096;50.892;16.746;2024-02-26T10:03:34;98193.79;;;8.29;73.72
37200;BME280;23096;50.892;16.746;2024-02-26T10:06:02;98193.63;;;8.33;73.73
37200;BME280;23096;50.892;16.746;2024-02-26T10:08:32;98197.38;;;8.38;73.73
37200;BME280;23096;50.892;16.746;2024-02-26T10:10:58;98192.84;;;8.45;73.78
37200;BME280;23096;50.892;16.746;2024-02-26T10:13:24;98197.73;;;8.55;73.83
37200;BME280;23096;50.892;16.746;2024-02-26T10:15:50;98205.64;;;8.68;73.82
37200;BME280;23096;50.892;16.746;2024-02-26T10:18:16;98206.44;;;8.82;73.93
37200;BME280;23096;50.892;16.746;2024-02-26T10:20:41;98202.54;;;8.93;73.92
37200;BME280;23096;50.892;16.746;2024-02-26T10:23:07;98207.98;;;9.03;73.80
37200;BME280;23096;50.892;16.746;2024-02-26T10:25:33;98207.89;;;9.13;73.82
37200;BME280;23096;50.892;16.746;2024-02-26T10:28:00;98208.20;;;9.22;73.67
37200;BME280;23096;50.892;16.746;2024-02-26T10:30:28;98205.98;;;9.29;73.68
37200;BME280;23096;50.892;16.746;2024-02-26T10:32:55;98206.52;;;9.36;73.67
37200;BME280;23096;50.892;16.746;2024-02-26T10:35:21;98203.86;;;9.43;73.58
37200;BME280;23096;50.892;16.746;2024-02-26T10:37:48;98201.95;;;9.55;73.68
37200;BME280;23096;50.892;16.746;2024-02-26T10:40:15;98201.42;;;9.63;73.54
37200;BME280;23096;50.892;16.746;2024-02-26T10:42:41;98197.81;;;9.67;73.34
37200;BME280;23096;50.892;16.746;2024-02-26T10:45:08;98194.65;;;9.69;73.22
37200;BME280;23096;50.892;16.746;2024-02-26T10:47:35;98193.41;;;9.70;73.19
37200;BME280;23096;50.892;16.746;2024-02-26T10:50:02;98191.29;;;9.71;73.03
37200;BME280;23096;50.892;16.746;2024-02-26T10:52:32;98188.34;;;9.72;73.08
37200;BME280;23096;50.892;16.746;2024-02-26T10:55:01;98184.55;;;9.72;72.97
37200;BME280;23096;50.892;16.746;2024-02-26T10:57:31;98181.11;;;9.72;72.83
37200;BME280;23096;50.892;16.746;2024-02-26T10:59:59;98182.65;;;9.73;72.85
37200;BME280;23096;50.892;16.746;2024-02-26T11:02:25;98170.77;;;9.74;72.88
37200;BME280;23096;50.892;16.746;2024-02-26T11:04:51;98166.90;;;9.76;72.89
37200;BME280;23096;50.892;16.746;2024-02-26T11:07:17;98164.36;;;9.79;72.81
37200;BME280;23096;50.892;16.746;2024-02-26T11:09:45;98161.66;;;9.82;72.81
37200;BME280;23096;50.892;16.746;2024-02-26T11:12:18;98159.30;;;9.85;72.65
37200;BME280;23096;50.892;16.746;2024-02-26T11:14:46;98154.77;;;9.86;72.55
37200;BME280;23096;50.892;16.746;2024-02-26T11:17:13;98153.70;;;9.87;72.55
37200;BME280;23096;50.892;16.746;2024-02-26T11:19:41;98152.45;;;9.88;72.46
37200;BME280;23096;50.892;16.746;2024-02-26T11:22:08;98151.52;;;9.90;72.37
37200;BME280;23096;50.892;16.746;2024-02-26T11:24:33;98152.98;;;9.91;72.32
37200;BME280;23096;50.892;16.746;2024-02-26T11:27:02;98149.89;;;9.92;72.19
37200;BME280;23096;50.892;16.746;2024-02-26T11:29:37;98141.73;;;9.94;72.12
37200;BME280;23096;50.892;16.746;2024-02-26T11:32:05;98140.13;;;9.95;72.15
37200;BME280;23096;50.892;16.746;2024-02-26T11:34:31;98140.15;;;9.98;72.06
37200;BME280;23096;50.892;16.746;2024-02-26T11:36:56;98135.52;;;10.01;71.96
37200;BME280;23096;50.892;16.746;2024-02-26T11:39:23;98135.59;;;10.04;71.85
37200;BME280;23096;50.892;16.746;2024-02-26T11:41:50;98131.69;;;10.06;71.80
37200;BME280;23096;50.892;16.746;2024-02-26T11:44:28;98131.69;;;10.10;71.65
37200;BME280;23096;50.892;16.746;2024-02-26T11:46:56;98135.11;;;10.14;71.65
37200;BME280;23096;50.892;16.746;2024-02-26T11:51:54;98137.84;;;10.21;71.56
37200;BME280;23096;50.892;16.746;2024-02-26T11:57:26;98132.46;;;10.37;71.57
37200;BME280;23096;50.892;16.746;2024-02-26T11:59:56;98134.16;;;10.48;71.47
37200;BME280;23096;50.892;16.746;2024-02-26T12:05:17;98134.13;;;10.60;71.18
37200;BME280;23096;50.892;16.746;2024-02-26T12:07:49;98131.88;;;10.64;71.26
37200;BME280;23096;50.892;16.746;2024-02-26T12:10:31;98130.80;;;10.68;71.16
37200;BME280;23096;50.892;16.746;2024-02-26T12:13:09;98133.96;;;10.74;70.96
37200;BME280;23096;50.892;16.746;2024-02-26T12:15:40;98130.90;;;10.77;70.80
37200;BME280;23096;50.892;16.746;2024-02-26T12:18:08;98130.16;;;10.78;70.65
37200;BME280;23096;50.892;16.746;2024-02-26T12:20:35;98129.06;;;10.79;70.55
37200;BME280;23096;50.892;16.746;2024-02-26T12:23:01;98132.61;;;10.80;70.58
37200;BME280;23096;50.892;16.746;2024-02-26T12:25:29;98129.11;;;10.78;70.39
37200;BME280;23096;50.892;16.746;2024-02-26T12:27:55;98129.59;;;10.75;70.31
37200;BME280;23096;50.892;16.746;2024-02-26T12:30:21;98125.82;;;10.75;70.27
37200;BME280;23096;50.892;16.746;2024-02-26T12:32:51;98124.81;;;10.74;70.11
37200;BME280;23096;50.892;16.746;2024-02-26T12:35:17;98126.76;;;10.73;70.07
37200;BME280;23096;50.892;16.746;2024-02-26T12:37:43;98127.19;;;10.71;69.85
37200;BME280;23096;50.892;16.746;2024-02-26T12:40:09;98126.53;;;10.71;69.89
37200;BME280;23096;50.892;16.746;2024-02-26T12:42:35;98125.19;;;10.70;69.93
37200;BME280;23096;50.892;16.746;2024-02-26T12:45:10;98130.66;;;10.71;69.70
37200;BME280;23096;50.892;16.746;2024-02-26T12:50:04;98133.61;;;10.70;69.54
37200;BME280;23096;50.892;16.746;2024-02-26T12:52:34;98131.46;;;10.72;69.50
37200;BME280;23096;50.892;16.746;2024-02-26T12:55:04;98131.08;;;10.72;69.39
37200;BME280;23096;50.892;16.746;2024-02-26T12:57:34;98130.36;;;10.73;69.31
37200;BME280;23096;50.892;16.746;2024-02-26T13:00:01;98127.73;;;10.74;69.25
37200;BME280;23096;50.892;16.746;2024-02-26T13:02:28;98127.56;;;10.74;69.28
37200;BME280;23096;50.892;16.746;2024-02-26T13:04:55;98130.58;;;10.76;69.19
37200;BME280;23096;50.892;16.746;2024-02-26T13:07:22;98129.50;;;10.77;69.17